sensor_id;sensor_type;location;lat;lon;timestamp;P1;durP1;ratioP1;P2;durP2;ratioP2
2650;SDS011;1335;48.180;16.342;2022-11-02T00:04:13;28.57;;;23.83;;
2650;SDS011;1335;48.180;16.342;2022-11-02T00:06:40;24.17;;;21.03;;
2650;SDS011;1335;48.180;16.342;2022-11-02T00:09:09;30.57;;;22.77;;
2650;SDS011;1335;48.180;16.342;2022-11-02T00:11:38;26.50;;;23.67;;
2650;SDS011;1335;48.180;16.342;2022-11-02T00:14:05;26.80;;;22.37;;
2650;SDS011;1335;48.180;16.342;2022-11-02T00:16:33;30.13;;;24.83;;
2650;SDS011;1335;48.180;16.342;2022-11-02T00:19:05;26.37;;;23.60;;
2650;SDS011;1335;48.180;16.342;2022-11-02T00:21:34;25.70;;;22.97;;
2650;SDS011;1335;48.180;16.342;2022-11-02T00:24:03;26.87;;;22.30;;
2650;SDS011;1335;48.180;16.342;2022-11-02T00:26:32;26.37;;;22.40;;
2650;SDS011;1335;48.180;16.342;2022-11-02T00:29:03;24.60;;;22.03;;
2650;SDS011;1335;48.180;16.342;2022-11-02T00:31:30;23.17;;;20.77;;
2650;SDS011;1335;48.180;16.342;2022-11-02T00:33:57;23.23;;;20.60;;
2650;SDS011;1335;48.180;16.342;2022-11-02T00:36:25;24.73;;;20.90;;
2650;SDS011;1335;48.180;16.342;2022-11-02T00:38:52;23.77;;;21.27;;
2650;SDS011;1335;48.180;16.342;2022-11-02T00:41:20;24.87;;;22.37;;
2650;SDS011;1335;48.180;16.342;2022-11-02T00:43:47;23.90;;;21.50;;
2650;SDS011;1335;48.180;16.342;2022-11-02T00:46:16;24.23;;;21.10;;
2650;SDS011;1335;48.180;16.342;2022-11-02T00:48:44;24.70;;;20.80;;
2650;SDS011;1335;48.180;16.342;2022-11-02T00:51:12;25.10;;;20.73;;
2650;SDS011;1335;48.180;16.342;2022-11-02T00:53:41;24.80;;;22.40;;
2650;SDS011;1335;48.180;16.342;2022-11-02T00:56:09;23.30;;;20.90;;
2650;SDS011;1335;48.180;16.342;2022-11-02T00:58:36;20.33;;;18.00;;
2650;SDS011;1335;48.180;16.342;2022-11-02T01:01:03;21.50;;;19.20;;
2650;SDS011;1335;48.180;16.342;2022-11-02T01:03:33;21.33;;;18.50;;
2650;SDS011;1335;48.180;16.342;2022-11-02T01:06:06;20.37;;;18.27;;
2650;SDS011;1335;48.180;16.342;2022-11-02T01:08:34;21.70;;;19.43;;
2650;SDS011;1335;48.180;16.342;2022-11-02T01:11:07;20.70;;;18.50;;
2650;SDS011;1335;48.180;16.342;2022-11-02T01:13:38;21.33;;;19.17;;
2650;SDS011;1335;48.180;16.342;2022-11-02T01:16:06;20.73;;;18.50;;
2650;SDS011;1335;48.180;16.342;2022-11-02T01:18:35;21.77;;;19.47;;
2650;SDS011;1335;48.180;16.342;2022-11-02T01:21:03;20.50;;;18.43;;
2650;SDS011;1335;48.180;16.342;2022-11-02T01:23:30;23.07;;;18.63;;
2650;SDS011;1335;48.180;16.342;2022-11-02T01:26:01;22.83;;;20.30;;
2650;SDS011;1335;48.180;16.342;2022-11-02T01:28:29;23.23;;;19.07;;
2650;SDS011;1335;48.180;16.342;2022-11-02T01:30:57;21.93;;;19.50;;
2650;SDS011;1335;48.180;16.342;2022-11-02T01:33:25;22.20;;;19.43;;
2650;SDS011;1335;48.180;16.342;2022-11-02T01:35:56;23.87;;;20.40;;
2650;SDS011;1335;48.180;16.342;2022-11-02T01:41:49;19.53;;;17.50;;
2650;SDS011;1335;48.180;16.342;2022-11-02T01:44:25;21.63;;;19.33;;
2650;SDS011;1335;48.180;16.342;2022-11-02T01:46:56;21.77;;;19.47;;
2650;SDS011;1335;48.180;16.342;2022-11-02T01:49:27;19.77;;;17.77;;
2650;SDS011;1335;48.180;16.342;2022-11-02T01:52:01;19.40;;;17.40;;
2650;SDS011;1335;48.180;16.342;2022-11-02T01:54:33;18.87;;;17.07;;
2650;SDS011;1335;48.180;16.342;2022-11-02T01:57:05;20.70;;;18.50;;
2650;SDS011;1335;48.180;16.342;2022-11-02T01:59:34;20.07;;;17.33;;
2650;SDS011;1335;48.180;16.342;2022-11-02T02:02:04;23.03;;;18.30;;
2650;SDS011;1335;48.180;16.342;2022-11-02T02:04:39;19.00;;;17.10;;
2650;SDS011;1335;48.180;16.342;2022-11-02T02:07:08;18.17;;;16.47;;
2650;SDS011;1335;48.180;16.342;2022-11-02T02:09:37;19.97;;;17.97;;
2650;SDS011;1335;48.180;16.342;2022-11-02T02:12:04;19.17;;;17.17;;
2650;SDS011;1335;48.180;16.342;2022-11-02T02:14:32;18.57;;;16.80;;
2650;SDS011;1335;48.180;16.342;2022-11-02T02:17:04;20.63;;;18.53;;
2650;SDS011;1335;48.180;16.342;2022-11-02T02:19:40;21.97;;;18.60;;
2650;SDS011;1335;48.180;16.342;2022-11-02T02:25:37;23.50;;;17.97;;
2650;SDS011;1335;48.180;16.342;2022-11-02T02:28:17;20.63;;;18.47;;
2650;SDS011;1335;48.180;16.342;2022-11-02T02:30:49;18.90;;;16.90;;
2650;SDS011;1335;48.180;16.342;2022-11-02T02:33:23;20.10;;;16.80;;
2650;SDS011;1335;48.180;16.342;2022-11-02T02:35:56;17.77;;;15.73;;
2650;SDS011;1335;48.180;16.342;2022-11-02T02:38:29;19.00;;;16.97;;
2650;SDS011;1335;48.180;16.342;2022-11-02T02:41:02;19.20;;;17.30;;
2650;SDS011;1335;48.180;16.342;2022-11-02T02:43:39;17.87;;;16.03;;
2650;SDS011;1335;48.180;16.342;2022-11-02T02:46:11;17.90;;;16.00;;
2650;SDS011;1335;48.180;16.342;2022-11-02T02:48:44;17.37;;;15.60;;
2650;SDS011;1335;48.180;16.342;2022-11-02T02:51:13;16.80;;;15.10;;
2650;SDS011;1335;48.180;16.342;2022-11-02T02:53:46;17.83;;;16.10;;
2650;SDS011;1335;48.180;16.342;2022-11-02T02:56:16;21.77;;;17.93;;
2650;SDS011;1335;48.180;16.342;2022-11-02T02:58:49;19.47;;;17.57;;
2650;SDS011;1335;48.180;16.342;2022-11-02T03:01:22;20.00;;;18.00;;
2650;SDS011;1335;48.180;16.342;2022-11-02T03:03:57;19.23;;;17.20;;
2650;SDS011;1335;48.180;16.342;2022-11-02T03:06:25;19.90;;;16.30;;
2650;SDS011;1335;48.180;16.342;2022-11-02T03:08:56;20.23;;;16.50;;
2650;SDS011;1335;48.180;16.342;2022-11-02T03:11:33;17.23;;;15.33;;
2650;SDS011;1335;48.180;16.342;2022-11-02T03:14:09;17.40;;;15.20;;
2650;SDS011;1335;48.180;16.342;2022-11-02T03:16:49;18.43;;;16.63;;
2650;SDS011;1335;48.180;16.342;2022-11-02T03:19:28;17.60;;;15.77;;
2650;SDS011;1335;48.180;16.342;2022-11-02T03:22:04;18.63;;;16.10;;
2650;SDS011;1335;48.180;16.342;2022-11-02T03:24:35;16.57;;;15.00;;
2650;SDS011;1335;48.180;16.342;2022-11-02T03:27:11;15.80;;;14.20;;
2650;SDS011;1335;48.180;16.342;2022-11-02T03:29:46;15.87;;;13.87;;
2650;SDS011;1335;48.180;16.342;2022-11-02T03:32:23;16.23;;;14.53;;
2650;SDS011;1335;48.180;16.342;2022-11-02T03:34:56;16.10;;;14.60;;
2650;SDS011;1335;48.180;16.342;2022-11-02T03:37:29;17.27;;;14.60;;
2650;SDS011;1335;48.180;16.342;2022-11-02T03:40:02;15.83;;;14.27;;
2650;SDS011;1335;48.180;16.342;2022-11-02T03:42:33;16.90;;;15.10;;
2650;SDS011;1335;48.180;16.342;2022-11-02T03:45:05;15.57;;;14.03;;
2650;SDS011;1335;48.180;16.342;2022-11-02T03:47:35;15.60;;;13.97;;
2650;SDS011;1335;48.180;16.342;2022-11-02T03:50:04;15.80;;;14.10;;
2650;SDS011;1335;48.180;16.342;2022-11-02T03:52:34;15.20;;;13.80;;
2650;SDS011;1335;48.180;16.342;2022-11-02T03:55:05;15.93;;;14.30;;
2650;SDS011;1335;48.180;16.342;2022-11-02T03:57:39;17.07;;;15.20;;
2650;SDS011;1335;48.180;16.342;2022-11-02T04:00:12;16.53;;;14.90;;
2650;SDS011;1335;48.180;16.342;2022-11-02T04:02:41;16.70;;;15.00;;
2650;SDS011;1335;48.180;16.342;2022-11-02T04:05:12;15.10;;;13.67;;
2650;SDS011;1335;48.180;16.342;2022-11-02T04:07:40;17.33;;;15.63;;
2650;SDS011;1335;48.180;16.342;2022-11-02T04:10:30;17.20;;;15.40;;
2650;SDS011;1335;48.180;16.342;2022-11-02T04:12:57;15.20;;;13.70;;
2650;SDS011;1335;48.180;16.342;2022-11-02T04:15:43;18.20;;;15.00;;
2650;SDS011;1335;48.180;16.342;2022-11-02T04:18:10;20.00;;;16.70;;
2650;SDS011;1335;48.180;16.342;2022-11-02T04:20:55;17.93;;;15.27;;
2650;SDS011;1335;48.180;16.342;2022-11-02T04:23:22;16.33;;;14.50;;
2650;SDS011;1335;48.180;16.342;2022-11-02T04:26:22;16.63;;;14.43;;
2650;SDS011;1335;48.180;16.342;2022-11-02T04:28:49;17.50;;;15.70;;
2650;SDS011;1335;48.180;16.342;2022-11-02T04:31:17;18.27;;;16.27;;
2650;SDS011;1335;48.180;16.342;2022-11-02T04:33:45;17.60;;;15.03;;
2650;SDS011;1335;48.180;16.342;2022-11-02T04:36:12;17.13;;;15.43;;
2650;SDS011;1335;48.180;16.342;2022-11-02T04:38:39;17.40;;;15.63;;
2650;SDS011;1335;48.180;16.342;2022-11-02T04:41:06;16.03;;;14.30;;
2650;SDS011;1335;48.180;16.342;2022-11-02T04:44:02;16.60;;;15.00;;
2650;SDS011;1335;48.180;16.342;2022-11-02T04:46:32;16.23;;;14.40;;
2650;SDS011;1335;48.180;16.342;2022-11-02T04:49:02;15.83;;;14.30;;
2650;SDS011;1335;48.180;16.342;2022-11-02T04:51:30;17.43;;;15.07;;
2650;SDS011;1335;48.180;16.342;2022-11-02T04:54:00;18.93;;;15.40;;
2650;SDS011;1335;48.180;16.342;2022-11-02T04:56:29;17.77;;;15.67;;
2650;SDS011;1335;48.180;16.342;2022-11-02T04:58:57;19.20;;;17.03;;
2650;SDS011;1335;48.180;16.342;2022-11-02T05:01:27;19.10;;;16.30;;
2650;SDS011;1335;48.180;16.342;2022-11-02T05:03:57;19.17;;;16.70;;
2650;SDS011;1335;48.180;16.342;2022-11-02T05:06:24;18.13;;;16.00;;
2650;SDS011;1335;48.180;16.342;2022-11-02T05:08:52;19.37;;;16.83;;
2650;SDS011;1335;48.180;16.342;2022-11-02T05:11:21;17.57;;;15.77;;
2650;SDS011;1335;48.180;16.342;2022-11-02T05:13:49;19.53;;;17.43;;
2650;SDS011;1335;48.180;16.342;2022-11-02T05:16:17;17.77;;;15.97;;
2650;SDS011;1335;48.180;16.342;2022-11-02T05:18:49;21.83;;;17.57;;
2650;SDS011;1335;48.180;16.342;2022-11-02T05:21:17;19.43;;;16.60;;
2650;SDS011;1335;48.180;16.342;2022-11-02T05:23:44;18.70;;;16.90;;
2650;SDS011;1335;48.180;16.342;2022-11-02T05:26:11;19.03;;;16.90;;
2650;SDS011;1335;48.180;16.342;2022-11-02T05:28:39;19.90;;;18.00;;
2650;SDS011;1335;48.180;16.342;2022-11-02T05:31:06;21.93;;;18.83;;
2650;SDS011;1335;48.180;16.342;2022-11-02T05:33:34;19.87;;;17.87;;
2650;SDS011;1335;48.180;16.342;2022-11-02T05:36:04;19.63;;;16.97;;
2650;SDS011;1335;48.180;16.342;2022-11-02T05:38:32;20.57;;;18.23;;
2650;SDS011;1335;48.180;16.342;2022-11-02T05:41:00;22.53;;;18.33;;
2650;SDS011;1335;48.180;16.342;2022-11-02T05:43:42;24.60;;;17.70;;
2650;SDS011;1335;48.180;16.342;2022-11-02T05:46:09;20.07;;;18.10;;
2650;SDS011;1335;48.180;16.342;2022-11-02T05:48:38;19.43;;;17.30;;
2650;SDS011;1335;48.180;16.342;2022-11-02T05:51:07;21.13;;;17.50;;
2650;SDS011;1335;48.180;16.342;2022-11-02T05:53:38;23.37;;;19.30;;
2650;SDS011;1335;48.180;16.342;2022-11-02T05:56:06;20.93;;;18.47;;
2650;SDS011;1335;48.180;16.342;2022-11-02T05:58:36;20.00;;;17.90;;
2650;SDS011;1335;48.180;16.342;2022-11-02T06:01:04;21.87;;;17.73;;
2650;SDS011;1335;48.180;16.342;2022-11-02T06:03:33;19.80;;;17.70;;
2650;SDS011;1335;48.180;16.342;2022-11-02T06:06:11;22.80;;;20.23;;
2650;SDS011;1335;48.180;16.342;2022-11-02T06:08:44;24.17;;;20.53;;
2650;SDS011;1335;48.180;16.342;2022-11-02T06:11:18;25.20;;;20.50;;
2650;SDS011;1335;48.180;16.342;2022-11-02T06:13:48;25.80;;;21.37;;
2650;SDS011;1335;48.180;16.342;2022-11-02T06:16:17;24.17;;;21.63;;
2650;SDS011;1335;48.180;16.342;2022-11-02T06:18:45;26.47;;;23.67;;
2650;SDS011;1335;48.180;16.342;2022-11-02T06:21:12;28.90;;;22.60;;
2650;SDS011;1335;48.180;16.342;2022-11-02T06:23:50;27.33;;;22.73;;
2650;SDS011;1335;48.180;16.342;2022-11-02T06:26:18;29.60;;;21.60;;
2650;SDS011;1335;48.180;16.342;2022-11-02T06:28:45;28.00;;;23.40;;
2650;SDS011;1335;48.180;16.342;2022-11-02T06:31:13;28.47;;;23.60;;
2650;SDS011;1335;48.180;16.342;2022-11-02T06:33:41;25.40;;;22.70;;
2650;SDS011;1335;48.180;16.342;2022-11-02T06:36:10;29.20;;;24.67;;
2650;SDS011;1335;48.180;16.342;2022-11-02T06:38:38;26.50;;;23.63;;
2650;SDS011;1335;48.180;16.342;2022-11-02T06:41:07;34.73;;;22.10;;
2650;SDS011;1335;48.180;16.342;2022-11-02T06:43:36;24.40;;;21.70;;
2650;SDS011;1335;48.180;16.342;2022-11-02T06:46:03;25.70;;;22.83;;
2650;SDS011;1335;48.180;16.342;2022-11-02T06:48:31;32.23;;;24.00;;
2650;SDS011;1335;48.180;16.342;2022-11-02T06:51:00;22.53;;;19.97;;
2650;SDS011;1335;48.180;16.342;2022-11-02T06:53:30;22.17;;;19.23;;
2650;SDS011;1335;48.180;16.342;2022-11-02T06:55:59;21.77;;;19.47;;
2650;SDS011;1335;48.180;16.342;2022-11-02T06:58:28;21.53;;;19.27;;
2650;SDS011;1335;48.180;16.342;2022-11-02T07:00:56;19.93;;;17.90;;
2650;SDS011;1335;48.180;16.342;2022-11-02T07:03:25;24.80;;;18.70;;
2650;SDS011;1335;48.180;16.342;2022-11-02T07:05:55;21.43;;;19.23;;
2650;SDS011;1335;48.180;16.342;2022-11-02T07:08:35;18.60;;;15.50;;
2650;SDS011;1335;48.180;16.342;2022-11-02T07:11:02;17.20;;;15.40;;
2650;SDS011;1335;48.180;16.342;2022-11-02T07:13:55;16.23;;;14.63;;
2650;SDS011;1335;48.180;16.342;2022-11-02T07:16:22;18.17;;;16.00;;
2650;SDS011;1335;48.180;16.342;2022-11-02T07:18:52;17.73;;;15.40;;
2650;SDS011;1335;48.180;16.342;2022-11-02T07:21:22;18.17;;;16.37;;
2650;SDS011;1335;48.180;16.342;2022-11-02T07:23:50;19.27;;;17.23;;
2650;SDS011;1335;48.180;16.342;2022-11-02T07:26:52;19.10;;;17.20;;
2650;SDS011;1335;48.180;16.342;2022-11-02T07:29:26;17.33;;;15.67;;
2650;SDS011;1335;48.180;16.342;2022-11-02T07:32:07;17.93;;;15.60;;
2650;SDS011;1335;48.180;16.342;2022-11-02T07:34:35;18.30;;;16.40;;
2650;SDS011;1335;48.180;16.342;2022-11-02T07:37:03;15.60;;;12.80;;
2650;SDS011;1335;48.180;16.342;2022-11-02T07:39:30;19.90;;;13.97;;
2650;SDS011;1335;48.180;16.342;2022-11-02T07:42:03;14.73;;;13.30;;
2650;SDS011;1335;48.180;16.342;2022-11-02T07:44:35;13.33;;;11.77;;
2650;SDS011;1335;48.180;16.342;2022-11-02T07:47:05;14.33;;;12.93;;
2650;SDS011;1335;48.180;16.342;2022-11-02T07:49:37;15.77;;;11.00;;
2650;SDS011;1335;48.180;16.342;2022-11-02T07:52:04;14.67;;;12.87;;
2650;SDS011;1335;48.180;16.342;2022-11-02T07:54:31;12.30;;;11.03;;
2650;SDS011;1335;48.180;16.342;2022-11-02T07:57:05;15.53;;;11.40;;
2650;SDS011;1335;48.180;16.342;2022-11-02T08:02:31;10.80;;;8.37;;
2650;SDS011;1335;48.180;16.342;2022-11-02T08:04:59;7.73;;;6.60;;
2650;SDS011;1335;48.180;16.342;2022-11-02T08:07:26;10.73;;;7.30;;
2650;SDS011;1335;48.180;16.342;2022-11-02T08:09:54;10.50;;;6.80;;
2650;SDS011;1335;48.180;16.342;2022-11-02T08:12:22;8.20;;;6.53;;
2650;SDS011;1335;48.180;16.342;2022-11-02T08:14:49;10.73;;;6.90;;
2650;SDS011;1335;48.180;16.342;2022-11-02T08:17:18;8.73;;;5.93;;
2650;SDS011;1335;48.180;16.342;2022-11-02T08:19:46;9.00;;;6.10;;
2650;SDS011;1335;48.180;16.342;2022-11-02T08:22:13;7.47;;;6.77;;
2650;SDS011;1335;48.180;16.342;2022-11-02T08:24:40;8.63;;;6.10;;
2650;SDS011;1335;48.180;16.342;2022-11-02T08:27:07;7.73;;;6.33;;
2650;SDS011;1335;48.180;16.342;2022-11-02T08:29:35;8.27;;;6.17;;
2650;SDS011;1335;48.180;16.342;2022-11-02T08:32:02;7.43;;;6.07;;
2650;SDS011;1335;48.180;16.342;2022-11-02T08:34:31;5.70;;;5.00;;
2650;SDS011;1335;48.180;16.342;2022-11-02T08:36:59;7.53;;;5.73;;
2650;SDS011;1335;48.180;16.342;2022-11-02T08:39:26;6.67;;;5.50;;
2650;SDS011;1335;48.180;16.342;2022-11-02T08:41:53;6.77;;;5.37;;
2650;SDS011;1335;48.180;16.342;2022-11-02T08:44:21;11.10;;;5.43;;
2650;SDS011;1335;48.180;16.342;2022-11-02T08:46:48;4.83;;;4.33;;
2650;SDS011;1335;48.180;16.342;2022-11-02T08:49:16;7.00;;;5.13;;
2650;SDS011;1335;48.180;16.342;2022-11-02T08:51:45;9.37;;;5.37;;
2650;SDS011;1335;48.180;16.342;2022-11-02T08:54:13;11.40;;;4.60;;
2650;SDS011;1335;48.180;16.342;2022-11-02T08:56:40;8.20;;;4.27;;
2650;SDS011;1335;48.180;16.342;2022-11-02T08:59:08;4.50;;;3.47;;
2650;SDS011;1335;48.180;16.342;2022-11-02T09:01:36;9.40;;;4.43;;
2650;SDS011;1335;48.180;16.342;2022-11-02T09:04:04;4.30;;;4.00;;
2650;SDS011;1335;48.180;16.342;2022-11-02T09:06:31;4.53;;;2.80;;
2650;SDS011;1335;48.180;16.342;2022-11-02T09:09:00;10.20;;;4.30;;
2650;SDS011;1335;48.180;16.342;2022-11-02T09:11:28;7.50;;;3.77;;
2650;SDS011;1335;48.180;16.342;2022-11-02T09:13:59;7.80;;;2.57;;
2650;SDS011;1335;48.180;16.342;2022-11-02T09:16:31;7.70;;;3.37;;
2650;SDS011;1335;48.180;16.342;2022-11-02T09:18:59;5.40;;;2.57;;
2650;SDS011;1335;48.180;16.342;2022-11-02T09:21:26;3.00;;;2.60;;
2650;SDS011;1335;48.180;16.342;2022-11-02T09:24:10;4.90;;;2.93;;
2650;SDS011;1335;48.180;16.342;2022-11-02T09:26:37;11.60;;;3.30;;
2650;SDS011;1335;48.180;16.342;2022-11-02T09:29:05;6.30;;;2.80;;
2650;SDS011;1335;48.180;16.342;2022-11-02T09:31:32;5.70;;;3.00;;
2650;SDS011;1335;48.180;16.342;2022-11-02T09:34:00;5.63;;;3.30;;
2650;SDS011;1335;48.180;16.342;2022-11-02T09:36:27;3.80;;;2.70;;
2650;SDS011;1335;48.180;16.342;2022-11-02T09:38:54;3.57;;;2.23;;
2650;SDS011;1335;48.180;16.342;2022-11-02T09:41:24;7.90;;;2.70;;
2650;SDS011;1335;48.180;16.342;2022-11-02T09:44:01;5.60;;;2.03;;
2650;SDS011;1335;48.180;16.342;2022-11-02T09:46:35;6.50;;;2.20;;
2650;SDS011;1335;48.180;16.342;2022-11-02T09:49:05;4.20;;;2.33;;
2650;SDS011;1335;48.180;16.342;2022-11-02T09:51:37;3.70;;;2.30;;
2650;SDS011;1335;48.180;16.342;2022-11-02T09:54:10;3.87;;;2.60;;
2650;SDS011;1335;48.180;16.342;2022-11-02T09:56:42;5.80;;;2.50;;
2650;SDS011;1335;48.180;16.342;2022-11-02T09:59:11;2.53;;;2.10;;
2650;SDS011;1335;48.180;16.342;2022-11-02T10:01:43;3.43;;;2.30;;
2650;SDS011;1335;48.180;16.342;2022-11-02T10:04:27;2.67;;;2.40;;
2650;SDS011;1335;48.180;16.342;2022-11-02T10:07:15;4.30;;;2.40;;
2650;SDS011;1335;48.180;16.342;2022-11-02T10:09:51;5.50;;;2.60;;
2650;SDS011;1335;48.180;16.342;2022-11-02T10:12:22;4.33;;;2.57;;
2650;SDS011;1335;48.180;16.342;2022-11-02T10:15:01;4.67;;;2.00;;
2650;SDS011;1335;48.180;16.342;2022-11-02T10:17:32;3.70;;;2.10;;
2650;SDS011;1335;48.180;16.342;2022-11-02T10:20:04;2.23;;;2.03;;
2650;SDS011;1335;48.180;16.342;2022-11-02T10:22:35;2.47;;;1.80;;
2650;SDS011;1335;48.180;16.342;2022-11-02T10:25:05;3.47;;;1.73;;
2650;SDS011;1335;48.180;16.342;2022-11-02T10:27:35;9.50;;;2.70;;
2650;SDS011;1335;48.180;16.342;2022-11-02T10:30:05;6.70;;;2.90;;
2650;SDS011;1335;48.180;16.342;2022-11-02T10:32:37;3.70;;;1.90;;
2650;SDS011;1335;48.180;16.342;2022-11-02T10:35:10;2.13;;;1.90;;
2650;SDS011;1335;48.180;16.342;2022-11-02T10:37:50;3.40;;;1.90;;
2650;SDS011;1335;48.180;16.342;2022-11-02T10:40:38;3.20;;;1.80;;
2650;SDS011;1335;48.180;16.342;2022-11-02T10:43:39;5.23;;;2.33;;
2650;SDS011;1335;48.180;16.342;2022-11-02T10:46:20;2.77;;;2.13;;
2650;SDS011;1335;48.180;16.342;2022-11-02T10:48:56;2.60;;;2.10;;
2650;SDS011;1335;48.180;16.342;2022-11-02T10:51:31;4.37;;;2.57;;
2650;SDS011;1335;48.180;16.342;2022-11-02T10:54:00;6.23;;;2.30;;
2650;SDS011;1335;48.180;16.342;2022-11-02T10:56:28;4.60;;;2.50;;
2650;SDS011;1335;48.180;16.342;2022-11-02T10:59:01;4.80;;;2.53;;
2650;SDS011;1335;48.180;16.342;2022-11-02T11:01:34;5.67;;;2.50;;
2650;SDS011;1335;48.180;16.342;2022-11-02T11:04:02;2.90;;;2.40;;
2650;SDS011;1335;48.180;16.342;2022-11-02T11:06:38;5.60;;;2.87;;
2650;SDS011;1335;48.180;16.342;2022-11-02T11:09:14;2.13;;;1.90;;
2650;SDS011;1335;48.180;16.342;2022-11-02T11:11:51;7.07;;;2.40;;
2650;SDS011;1335;48.180;16.342;2022-11-02T11:14:20;6.83;;;2.10;;
2650;SDS011;1335;48.180;16.342;2022-11-02T11:16:50;2.90;;;1.90;;
2650;SDS011;1335;48.180;16.342;2022-11-02T11:19:20;2.80;;;1.80;;
2650;SDS011;1335;48.180;16.342;2022-11-02T11:21:55;3.73;;;2.13;;
2650;SDS011;1335;48.180;16.342;2022-11-02T11:24:23;2.63;;;2.00;;
2650;SDS011;1335;48.180;16.342;2022-11-02T11:27:00;4.93;;;2.60;;
2650;SDS011;1335;48.180;16.342;2022-11-02T11:29:31;3.87;;;2.07;;
2650;SDS011;1335;48.180;16.342;2022-11-02T11:32:00;3.57;;;2.30;;
2650;SDS011;1335;48.180;16.342;2022-11-02T11:34:30;3.07;;;1.80;;
2650;SDS011;1335;48.180;16.342;2022-11-02T11:37:05;3.20;;;2.03;;
2650;SDS011;1335;48.180;16.342;2022-11-02T11:39:38;4.80;;;2.03;;
2650;SDS011;1335;48.180;16.342;2022-11-02T11:42:12;3.33;;;2.23;;
2650;SDS011;1335;48.180;16.342;2022-11-02T11:44:50;2.67;;;2.20;;
2650;SDS011;1335;48.180;16.342;2022-11-02T11:47:25;2.77;;;1.80;;
2650;SDS011;1335;48.180;16.342;2022-11-02T11:49:55;2.90;;;1.50;;
2650;SDS011;1335;48.180;16.342;2022-11-02T11:52:27;3.40;;;2.00;;
2650;SDS011;1335;48.180;16.342;2022-11-02T11:54:56;2.20;;;1.80;;
2650;SDS011;1335;48.180;16.342;2022-11-02T11:57:28;8.00;;;2.60;;
2650;SDS011;1335;48.180;16.342;2022-11-02T11:59:59;6.70;;;2.20;;
2650;SDS011;1335;48.180;16.342;2022-11-02T12:02:29;2.97;;;1.63;;
2650;SDS011;1335;48.180;16.342;2022-11-02T12:04:58;3.83;;;1.80;;
2650;SDS011;1335;48.180;16.342;2022-11-02T12:07:39;2.70;;;1.83;;
2650;SDS011;1335;48.180;16.342;2022-11-02T12:10:27;4.00;;;1.70;;
2650;SDS011;1335;48.180;16.342;2022-11-02T12:13:06;11.37;;;2.50;;
2650;SDS011;1335;48.180;16.342;2022-11-02T12:16:01;3.53;;;1.80;;
2650;SDS011;1335;48.180;16.342;2022-11-02T12:18:47;6.07;;;1.90;;
2650;SDS011;1335;48.180;16.342;2022-11-02T12:21:34;1.57;;;1.47;;
2650;SDS011;1335;48.180;16.342;2022-11-02T12:24:29;5.87;;;1.80;;
2650;SDS011;1335;48.180;16.342;2022-11-02T12:27:21;4.50;;;2.23;;
2650;SDS011;1335;48.180;16.342;2022-11-02T12:30:01;2.00;;;1.67;;
2650;SDS011;1335;48.180;16.342;2022-11-02T12:32:55;6.33;;;2.10;;
2650;SDS011;1335;48.180;16.342;2022-11-02T12:35:36;3.40;;;2.13;;
2650;SDS011;1335;48.180;16.342;2022-11-02T12:41:53;2.60;;;1.60;;
2650;SDS011;1335;48.180;16.342;2022-11-02T12:44:41;6.40;;;2.00;;
2650;SDS011;1335;48.180;16.342;2022-11-02T12:47:18;4.73;;;1.87;;
2650;SDS011;1335;48.180;16.342;2022-11-02T12:50:01;3.90;;;1.67;;
2650;SDS011;1335;48.180;16.342;2022-11-02T12:52:58;5.00;;;1.83;;
2650;SDS011;1335;48.180;16.342;2022-11-02T12:55:35;3.50;;;1.60;;
2650;SDS011;1335;48.180;16.342;2022-11-02T12:58:09;3.27;;;1.70;;
2650;SDS011;1335;48.180;16.342;2022-11-02T13:00:41;6.80;;;2.67;;
2650;SDS011;1335;48.180;16.342;2022-11-02T13:03:14;3.17;;;1.67;;
2650;SDS011;1335;48.180;16.342;2022-11-02T13:05:55;1.57;;;1.40;;
2650;SDS011;1335;48.180;16.342;2022-11-02T13:08:32;2.70;;;1.60;;
2650;SDS011;1335;48.180;16.342;2022-11-02T13:11:05;3.87;;;1.77;;
2650;SDS011;1335;48.180;16.342;2022-11-02T13:13:40;6.23;;;2.60;;
2650;SDS011;1335;48.180;16.342;2022-11-02T13:16:17;3.07;;;1.50;;
2650;SDS011;1335;48.180;16.342;2022-11-02T13:18:52;4.13;;;1.67;;
2650;SDS011;1335;48.180;16.342;2022-11-02T13:21:28;3.07;;;1.80;;
2650;SDS011;1335;48.180;16.342;2022-11-02T13:24:00;4.10;;;2.07;;
2650;SDS011;1335;48.180;16.342;2022-11-02T13:26:53;3.63;;;2.27;;
2650;SDS011;1335;48.180;16.342;2022-11-02T13:29:25;3.13;;;1.90;;
2650;SDS011;1335;48.180;16.342;2022-11-02T13:31:59;3.80;;;2.47;;
2650;SDS011;1335;48.180;16.342;2022-11-02T13:34:45;3.37;;;1.73;;
2650;SDS011;1335;48.180;16.342;2022-11-02T13:37:18;4.20;;;1.90;;
2650;SDS011;1335;48.180;16.342;2022-11-02T13:39:50;4.63;;;2.80;;
2650;SDS011;1335;48.180;16.342;2022-11-02T13:42:23;4.20;;;2.23;;
2650;SDS011;1335;48.180;16.342;2022-11-02T16:15:36;7.87;;;4.23;;
2650;SDS011;1335;48.180;16.342;2022-11-02T16:18:22;7.20;;;4.00;;
2650;SDS011;1335;48.180;16.342;2022-11-02T16:21:06;6.50;;;4.30;;
2650;SDS011;1335;48.180;16.342;2022-11-02T16:23:39;7.93;;;4.50;;
2650;SDS011;1335;48.180;16.342;2022-11-02T16:26:10;8.80;;;3.40;;
2650;SDS011;1335;48.180;16.342;2022-11-02T16:28:46;4.73;;;3.83;;
2650;SDS011;1335;48.180;16.342;2022-11-02T16:31:18;6.03;;;2.73;;
2650;SDS011;1335;48.180;16.342;2022-11-02T16:34:14;6.93;;;2.83;;
2650;SDS011;1335;48.180;16.342;2022-11-02T16:36:47;7.03;;;2.80;;
2650;SDS011;1335;48.180;16.342;2022-11-02T16:42:56;7.60;;;3.03;;
2650;SDS011;1335;48.180;16.342;2022-11-02T16:46:00;6.63;;;3.20;;
2650;SDS011;1335;48.180;16.342;2022-11-02T16:48:32;6.23;;;3.67;;
2650;SDS011;1335;48.180;16.342;2022-11-02T16:51:01;8.40;;;3.67;;
2650;SDS011;1335;48.180;16.342;2022-11-02T16:53:31;7.40;;;3.13;;
2650;SDS011;1335;48.180;16.342;2022-11-02T16:56:16;8.20;;;4.70;;
2650;SDS011;1335;48.180;16.342;2022-11-02T16:58:58;5.30;;;3.67;;
2650;SDS011;1335;48.180;16.342;2022-11-02T17:01:39;6.33;;;3.20;;
2650;SDS011;1335;48.180;16.342;2022-11-02T17:04:18;4.90;;;3.37;;
2650;SDS011;1335;48.180;16.342;2022-11-02T17:06:53;10.13;;;5.20;;
2650;SDS011;1335;48.180;16.342;2022-11-02T17:09:24;20.30;;;12.70;;
2650;SDS011;1335;48.180;16.342;2022-11-02T17:12:47;9.40;;;6.27;;
2650;SDS011;1335;48.180;16.342;2022-11-02T17:16:17;9.27;;;4.43;;
2650;SDS011;1335;48.180;16.342;2022-11-02T17:26:22;6.83;;;3.60;;
2650;SDS011;1335;48.180;16.342;2022-11-02T17:31:58;6.80;;;2.90;;
2650;SDS011;1335;48.180;16.342;2022-11-02T17:34:26;4.70;;;2.87;;
2650;SDS011;1335;48.180;16.342;2022-11-02T17:36:56;4.50;;;2.60;;
2650;SDS011;1335;48.180;16.342;2022-11-02T17:39:25;6.23;;;3.50;;
2650;SDS011;1335;48.180;16.342;2022-11-02T17:45:14;8.20;;;3.57;;
2650;SDS011;1335;48.180;16.342;2022-11-02T17:48:05;4.37;;;3.00;;
2650;SDS011;1335;48.180;16.342;2022-11-02T17:50:35;4.40;;;2.40;;
2650;SDS011;1335;48.180;16.342;2022-11-02T17:53:08;4.00;;;2.80;;
2650;SDS011;1335;48.180;16.342;2022-11-02T17:55:45;4.93;;;2.87;;
2650;SDS011;1335;48.180;16.342;2022-11-02T17:58:14;7.33;;;3.13;;
2650;SDS011;1335;48.180;16.342;2022-11-02T18:00:42;3.00;;;2.57;;
2650;SDS011;1335;48.180;16.342;2022-11-02T18:03:12;4.57;;;2.90;;
2650;SDS011;1335;48.180;16.342;2022-11-02T18:05:45;6.90;;;3.07;;
2650;SDS011;1335;48.180;16.342;2022-11-02T18:08:14;4.60;;;4.00;;
2650;SDS011;1335;48.180;16.342;2022-11-02T18:10:56;7.10;;;3.87;;
2650;SDS011;1335;48.180;16.342;2022-11-02T18:20:12;7.20;;;4.87;;
2650;SDS011;1335;48.180;16.342;2022-11-02T18:22:46;8.40;;;5.50;;
2650;SDS011;1335;48.180;16.342;2022-11-02T18:25:29;6.53;;;3.80;;
2650;SDS011;1335;48.180;16.342;2022-11-02T18:28:07;12.60;;;5.20;;
2650;SDS011;1335;48.180;16.342;2022-11-02T18:30:49;7.73;;;4.77;;
2650;SDS011;1335;48.180;16.342;2022-11-02T18:33:22;7.63;;;4.80;;